Time;durP1;ratioP1;P1;durP2;ratioP2;P2;SDS_P1;SDS_P2;PMS_P1;PMS_P2;Temp;Humidity;BMP_temperature;BMP_pressure;BME280_temperature;BME280_humidity;BME280_pressure;Samples;Min_cycle;Max_cycle;Signal;HPM_P1;HPM_P2
2021/09/20 00:00:43;;;;;;;7.77;5.63;;;15.80;68.50;;;;;;5011750;28;20511;-46
2021/09/20 00:03:10;;;;;;;7.20;5.67;;;15.80;68.60;;;;;;5020862;28;20460;-46
2021/09/20 00:05:37;;;;;;;7.47;6.77;;;15.80;68.80;;;;;;5010798;28;20519;-46
2021/09/20 00:08:04;;;;;;;6.07;5.47;;;15.80;68.90;;;;;;5005169;28;20532;-46
2021/09/20 00:10:31;;;;;;;6.60;6.00;;;15.80;68.70;;;;;;5014715;28;20468;-46
2021/09/20 00:12:58;;;;;;;7.47;6.33;;;15.80;68.90;;;;;;4994768;28;20490;-46
2021/09/20 00:15:25;;;;;;;7.40;5.27;;;15.70;69.00;;;;;;5005089;28;20458;-46
2021/09/20 00:17:52;;;;;;;7.60;6.27;;;15.70;69.00;;;;;;5004519;28;20499;-46
2021/09/20 00:20:19;;;;;;;9.30;6.30;;;15.80;69.00;;;;;;5006119;28;20822;-46
2021/09/20 00:22:45;;;;;;;7.00;6.10;;;15.70;69.10;;;;;;5007183;28;20499;-46
2021/09/20 00:25:13;;;;;;;6.47;5.80;;;15.70;69.10;;;;;;5008543;28;20456;-46
2021/09/20 00:27:40;;;;;;;8.10;6.40;;;15.70;69.30;;;;;;5008644;28;20444;-46
2021/09/20 00:30:08;;;;;;;7.20;6.17;;;15.70;69.20;;;;;;5000240;28;20456;-46
2021/09/20 00:32:35;;;;;;;6.43;5.83;;;15.80;69.30;;;;;;5009247;28;20478;-46
2021/09/20 00:35:02;;;;;;;9.67;6.17;;;15.70;69.20;;;;;;4991899;28;20471;-46
2021/09/20 00:37:28;;;;;;;6.80;5.43;;;15.70;69.00;;;;;;5008303;28;20461;-46
2021/09/20 00:39:55;;;;;;;7.60;5.83;;;15.70;69.00;;;;;;5007190;28;20463;-46
2021/09/20 00:42:22;;;;;;;6.10;5.53;;;15.70;68.70;;;;;;5004209;28;20495;-46
2021/09/20 00:44:48;;;;;;;6.60;5.80;;;15.70;68.80;;;;;;5006960;28;20456;-46
2021/09/20 00:47:15;;;;;;;7.80;6.33;;;15.60;69.10;;;;;;5003001;28;20556;-46
2021/09/20 00:49:42;;;;;;;7.40;6.20;;;15.70;69.20;;;;;;5004418;28;20468;-46
2021/09/20 00:52:10;;;;;;;6.03;5.43;;;15.70;69.50;;;;;;5003991;28;20492;-46
2021/09/20 00:54:36;;;;;;;6.97;5.47;;;15.70;69.30;;;;;;5005864;28;20953;-46
2021/09/20 00:57:04;;;;;;;9.63;6.20;;;15.70;69.30;;;;;;5008804;28;20460;-46
2021/09/20 00:59:31;;;;;;;6.97;6.27;;;15.70;69.30;;;;;;5008079;28;20976;-46
2021/09/20 01:01:58;;;;;;;8.63;6.23;;;15.70;69.40;;;;;;5006662;28;20516;-46
2021/09/20 01:04:25;;;;;;;7.37;6.03;;;15.70;69.00;;;;;;5007105;28;20898;-46
2021/09/20 01:06:52;;;;;;;7.13;5.40;;;15.70;69.30;;;;;;5004301;28;20485;-46
2021/09/20 01:09:18;;;;;;;6.40;5.80;;;15.70;68.90;;;;;;5007546;28;20611;-46
2021/09/20 01:11:47;;;;;;;8.00;6.10;;;15.70;69.00;;;;;;5008252;28;20463;-46
2021/09/20 01:14:14;;;;;;;6.70;6.00;;;15.70;69.20;;;;;;5001054;28;20481;-46
2021/09/20 01:16:40;;;;;;;10.77;6.33;;;15.70;69.40;;;;;;5005128;28;20475;-46
2021/09/20 01:19:07;;;;;;;6.70;6.07;;;15.70;69.20;;;;;;5005776;28;20824;-46
2021/09/20 01:21:34;;;;;;;10.13;5.50;;;15.70;69.10;;;;;;5017967;28;20487;-46
2021/09/20 01:24:00;;;;;;;7.00;5.90;;;15.60;69.10;;;;;;5007674;28;20467;-46
2021/09/20 01:26:27;;;;;;;8.13;6.20;;;15.60;69.10;;;;;;5005535;28;20465;-46
2021/09/20 01:28:54;;;;;;;7.60;6.50;;;15.60;69.10;;;;;;5006095;28;20452;-46
2021/09/20 01:31:21;;;;;;;7.30;5.87;;;15.60;69.20;;;;;;5004138;28;20846;-46
2021/09/20 01:33:48;;;;;;;6.97;6.37;;;15.60;69.10;;;;;;5004022;28;20460;-46
2021/09/20 01:36:14;;;;;;;7.70;6.00;;;15.60;69.20;;;;;;5017975;28;20469;-46
2021/09/20 01:38:41;;;;;;;7.60;6.80;;;15.60;69.00;;;;;;5007675;28;20467;-46
2021/09/20 01:41:08;;;;;;;7.20;6.50;;;15.60;68.90;;;;;;5002580;28;20494;-46
2021/09/20 01:43:34;;;;;;;13.10;6.67;;;15.50;69.10;;;;;;5008196;28;20456;-46
2021/09/20 01:46:01;;;;;;;10.10;6.27;;;15.50;69.30;;;;;;5006324;28;22066;-46
2021/09/20 01:48:28;;;;;;;7.57;6.03;;;15.50;69.30;;;;;;5005819;28;20534;-46
2021/09/20 01:50:55;;;;;;;8.03;6.07;;;15.50;69.40;;;;;;5003862;28;20898;-46
2021/09/20 01:53:22;;;;;;;6.43;5.70;;;15.50;69.60;;;;;;5000459;28;20859;-46
2021/09/20 01:55:48;;;;;;;6.50;5.53;;;15.50;69.70;;;;;;5002354;28;20519;-46
2021/09/20 01:58:15;;;;;;;7.13;6.43;;;15.40;69.70;;;;;;5008135;28;20543;-46
2021/09/20 02:00:43;;;;;;;7.80;6.70;;;15.40;69.40;;;;;;5004136;28;20457;-46
2021/09/20 02:03:12;;;;;;;7.20;6.50;;;15.40;69.50;;;;;;5005327;28;20526;-46
2021/09/20 02:05:39;;;;;;;8.10;6.27;;;15.30;69.60;;;;;;5007226;28;20510;-46
2021/09/20 02:08:07;;;;;;;6.40;5.80;;;15.30;69.70;;;;;;5005238;28;20539;-46
2021/09/20 02:10:33;;;;;;;6.00;5.30;;;15.30;69.60;;;;;;5015017;28;20468;-46
2021/09/20 02:13:00;;;;;;;7.23;5.80;;;15.30;69.70;;;;;;5017624;28;20563;-46
2021/09/20 02:15:27;;;;;;;7.30;6.53;;;15.30;69.70;;;;;;5001853;28;20559;-46
2021/09/20 02:17:54;;;;;;;8.43;6.80;;;15.30;69.70;;;;;;5004596;28;20526;-46
2021/09/20 02:20:21;;;;;;;6.17;5.57;;;15.30;69.60;;;;;;5003318;28;20461;-47
2021/09/20 02:22:47;;;;;;;6.83;5.27;;;15.30;69.60;;;;;;5004949;28;20484;-47
2021/09/20 02:25:14;;;;;;;6.70;6.00;;;15.40;69.40;;;;;;5006989;28;20461;-46
2021/09/20 02:27:41;;;;;;;7.17;5.70;;;15.30;69.40;;;;;;5002866;28;20484;-47
2021/09/20 02:30:09;;;;;;;7.03;6.13;;;15.30;69.40;;;;;;5000631;28;20456;-46
2021/09/20 02:32:36;;;;;;;6.73;6.13;;;15.30;69.40;;;;;;5002803;28;20467;-46
2021/09/20 02:35:04;;;;;;;7.40;6.70;;;15.30;69.70;;;;;;5019080;28;20610;-46
2021/09/20 02:37:31;;;;;;;8.40;6.00;;;15.30;69.30;;;;;;5015713;28;20472;-46
2021/09/20 02:39:59;;;;;;;9.80;6.43;;;15.30;69.60;;;;;;5001422;28;20465;-46
2021/09/20 02:42:26;;;;;;;7.10;5.40;;;15.30;69.40;;;;;;5003856;28;20559;-46
2021/09/20 02:44:53;;;;;;;6.50;5.60;;;15.20;69.40;;;;;;5005216;28;20456;-46
2021/09/20 02:47:20;;;;;;;7.03;5.83;;;15.20;69.40;;;;;;5002020;28;20452;-46
2021/09/20 02:49:47;;;;;;;7.47;5.70;;;15.30;69.40;;;;;;5001584;28;20480;-46
2021/09/20 02:52:13;;;;;;;6.37;5.77;;;15.20;69.10;;;;;;4999516;28;20457;-46
2021/09/20 02:54:40;;;;;;;8.30;6.37;;;15.20;69.30;;;;;;5001908;28;20844;-46
2021/09/20 02:57:07;;;;;;;6.93;6.03;;;15.20;69.50;;;;;;5003610;28;20465;-46
2021/09/20 02:59:33;;;;;;;7.77;6.20;;;15.20;69.50;;;;;;5000843;28;20457;-46
2021/09/20 03:02:00;;;;;;;6.10;5.50;;;15.20;69.30;;;;;;5017942;28;20518;-46
2021/09/20 03:04:27;;;;;;;9.50;7.03;;;15.20;69.50;;;;;;5004908;28;20476;-46
2021/09/20 03:06:54;;;;;;;6.43;4.93;;;15.10;69.80;;;;;;5002227;28;20452;-46
2021/09/20 03:09:21;;;;;;;6.20;5.53;;;15.20;69.80;;;;;;5007747;28;20460;-46
2021/09/20 03:11:47;;;;;;;7.33;5.93;;;15.10;69.60;;;;;;5001535;28;20460;-46
2021/09/20 03:14:15;;;;;;;7.27;5.70;;;15.10;69.90;;;;;;5001472;28;20566;-46
2021/09/20 03:16:41;;;;;;;8.23;6.13;;;15.10;70.00;;;;;;5017807;28;20848;-46
2021/09/20 03:19:08;;;;;;;7.73;5.77;;;15.10;69.80;;;;;;5001776;28;21236;-46
2021/09/20 03:21:35;;;;;;;7.70;5.80;;;15.10;69.80;;;;;;5005120;28;20495;-46
2021/09/20 03:24:02;;;;;;;7.50;5.90;;;15.10;69.90;;;;;;5002499;28;20484;-46
2021/09/20 03:26:29;;;;;;;7.77;6.30;;;15.00;70.00;;;;;;5003338;28;20459;-46
2021/09/20 03:28:55;;;;;;;8.27;6.47;;;15.00;70.10;;;;;;5002691;28;20808;-46
2021/09/20 03:31:22;;;;;;;6.73;6.00;;;15.00;70.20;;;;;;5000973;28;20504;-46
2021/09/20 03:33:49;;;;;;;9.20;6.07;;;15.00;70.40;;;;;;5001418;28;20974;-46
2021/09/20 03:36:16;;;;;;;6.80;5.90;;;15.00;70.40;;;;;;5008992;28;20830;-46
2021/09/20 03:38:42;;;;;;;7.53;5.27;;;15.00;70.60;;;;;;5004138;28;20878;-46
2021/09/20 03:41:09;;;;;;;7.10;6.40;;;15.10;70.70;;;;;;5007834;28;20448;-46
2021/09/20 03:43:36;;;;;;;7.10;5.83;;;15.10;70.40;;;;;;5004800;28;20839;-46
2021/09/20 03:46:03;;;;;;;7.90;6.17;;;15.10;70.20;;;;;;5007948;28;20479;-46
2021/09/20 03:48:30;;;;;;;6.23;5.60;;;15.10;70.30;;;;;;5005885;28;20464;-46
2021/09/20 03:50:57;;;;;;;7.30;5.70;;;15.10;70.40;;;;;;5008439;28;20448;-46
2021/09/20 03:53:23;;;;;;;7.80;6.53;;;15.20;70.50;;;;;;5006071;28;20551;-46
2021/09/20 03:55:50;;;;;;;10.20;5.93;;;15.20;70.30;;;;;;5021623;28;20460;-46
2021/09/20 03:58:17;;;;;;;8.07;5.70;;;15.20;70.20;;;;;;5004888;28;20825;-46
2021/09/20 04:00:44;;;;;;;8.63;6.10;;;15.20;70.10;;;;;;5006679;28;20461;-46
2021/09/20 04:03:10;;;;;;;7.93;6.80;;;15.10;70.10;;;;;;5010301;28;20485;-46
2021/09/20 04:05:37;;;;;;;6.60;5.83;;;15.10;70.00;;;;;;5010252;28;20451;-46
2021/09/20 04:08:04;;;;;;;9.03;6.40;;;15.10;70.20;;;;;;5005145;28;20757;-46
2021/09/20 04:10:31;;;;;;;6.70;6.00;;;15.10;70.20;;;;;;5002760;28;20958;-46
2021/09/20 04:12:58;;;;;;;7.03;5.87;;;15.10;70.20;;;;;;5004558;28;20484;-46
2021/09/20 04:15:28;;;;;;;9.90;6.87;;;15.10;70.10;;;;;;5006147;28;21027;-46
2021/09/20 04:17:55;;;;;;;7.97;5.90;;;15.10;70.20;;;;;;5005204;28;20457;-46
2021/09/20 04:20:23;;;;;;;9.80;6.67;;;15.00;70.20;;;;;;5004956;28;20467;-46
2021/09/20 04:22:49;;;;;;;7.43;6.10;;;15.10;70.10;;;;;;5004290;28;21050;-46
2021/09/20 04:25:16;;;;;;;8.00;5.73;;;15.10;70.10;;;;;;5006401;28;20457;-46
2021/09/20 04:27:43;;;;;;;7.77;6.30;;;15.10;70.00;;;;;;5002093;28;20464;-46
2021/09/20 04:30:10;;;;;;;7.57;6.53;;;15.10;69.80;;;;;;5004017;28;20461;-46
2021/09/20 04:32:37;;;;;;;7.03;6.27;;;15.10;69.60;;;;;;5001976;28;20463;-46
2021/09/20 04:35:05;;;;;;;7.33;5.73;;;15.10;69.70;;;;;;5004535;28;20474;-46
2021/09/20 04:37:31;;;;;;;8.50;6.80;;;15.00;69.80;;;;;;5006151;28;20501;-46
2021/09/20 04:39:59;;;;;;;7.63;6.10;;;15.00;69.80;;;;;;5006645;28;20507;-46
2021/09/20 04:42:25;;;;;;;8.20;5.80;;;15.00;69.90;;;;;;5005399;28;21052;-46
2021/09/20 04:44:52;;;;;;;10.03;7.63;;;15.00;70.30;;;;;;5001341;28;20466;-46
2021/09/20 04:47:19;;;;;;;8.40;6.40;;;15.00;69.80;;;;;;5002380;28;20842;-46
2021/09/20 04:49:45;;;;;;;8.47;6.10;;;15.00;69.80;;;;;;5005362;28;20953;-46
2021/09/20 04:52:12;;;;;;;7.80;6.30;;;15.00;69.90;;;;;;5002144;28;20790;-46
2021/09/20 04:54:39;;;;;;;8.97;6.33;;;15.00;69.70;;;;;;5006205;28;20460;-46
2021/09/20 04:57:06;;;;;;;8.60;6.87;;;15.00;69.70;;;;;;5004637;28;20456;-46
2021/09/20 04:59:32;;;;;;;8.87;6.90;;;14.90;69.90;;;;;;5004988;28;20552;-46
2021/09/20 05:01:59;;;;;;;12.90;7.40;;;14.90;69.80;;;;;;5004644;28;20487;-46
2021/09/20 05:04:26;;;;;;;9.80;6.10;;;14.90;69.90;;;;;;5004985;28;20468;-46
2021/09/20 05:06:53;;;;;;;9.27;6.03;;;14.80;70.10;;;;;;5008070;28;20541;-47
2021/09/20 05:09:19;;;;;;;8.53;6.90;;;14.90;70.20;;;;;;5007291;28;21001;-47
2021/09/20 05:11:46;;;;;;;9.23;6.63;;;14.90;70.20;;;;;;5004480;28;20501;-46
2021/09/20 05:14:13;;;;;;;9.60;6.67;;;14.90;70.00;;;;;;5004523;28;20925;-45
2021/09/20 05:16:40;;;;;;;8.10;6.93;;;14.90;69.90;;;;;;5008660;28;20457;-46
2021/09/20 05:19:07;;;;;;;8.37;6.77;;;14.90;69.80;;;;;;5004874;28;20495;-46
2021/09/20 05:21:34;;;;;;;9.83;6.93;;;14.90;69.60;;;;;;5001502;28;20849;-46
2021/09/20 05:24:00;;;;;;;9.77;7.97;;;14.90;69.80;;;;;;5017360;28;20826;-46
2021/09/20 05:26:27;;;;;;;11.47;7.60;;;14.90;69.70;;;;;;5006234;28;20444;-46
2021/09/20 05:28:54;;;;;;;8.43;7.50;;;14.80;69.60;;;;;;5000603;28;20461;-46
2021/09/20 05:31:21;;;;;;;9.97;8.10;;;14.80;69.70;;;;;;5018392;28;20466;-46
2021/09/20 05:33:48;;;;;;;9.90;8.07;;;14.70;69.50;;;;;;5004185;28;20965;-47
2021/09/20 05:36:14;;;;;;;11.70;8.00;;;14.70;69.50;;;;;;5001177;28;20470;-47
2021/09/20 05:38:41;;;;;;;12.30;7.60;;;14.70;69.70;;;;;;5001310;28;21033;-47
2021/09/20 05:41:08;;;;;;;10.80;7.50;;;14.70;70.00;;;;;;5006524;28;20894;-47
2021/09/20 05:43:35;;;;;;;10.33;8.53;;;14.80;69.70;;;;;;5004647;28;20563;-47
2021/09/20 05:46:01;;;;;;;8.57;7.13;;;14.80;69.70;;;;;;4987684;28;20499;-46
2021/09/20 05:48:28;;;;;;;14.07;8.57;;;14.80;69.40;;;;;;5003148;28;20607;-47
2021/09/20 05:50:55;;;;;;;14.23;8.27;;;14.70;69.50;;;;;;5004852;28;20465;-47
2021/09/20 05:53:22;;;;;;;9.40;7.60;;;14.70;69.60;;;;;;5002906;28;20466;-47
2021/09/20 05:55:49;;;;;;;9.67;8.13;;;14.60;69.70;;;;;;5000897;28;21137;-46
2021/09/20 05:58:16;;;;;;;9.00;7.40;;;14.60;69.70;;;;;;4997568;28;20467;-46
2021/09/20 06:00:43;;;;;;;9.47;6.70;;;14.60;69.90;;;;;;5017743;28;20840;-47
2021/09/20 06:03:11;;;;;;;11.03;7.87;;;14.60;69.80;;;;;;4999032;28;20507;-47
2021/09/20 06:05:38;;;;;;;9.40;8.30;;;14.70;69.40;;;;;;5003019;28;20895;-47
2021/09/20 06:08:06;;;;;;;10.20;7.80;;;14.70;69.40;;;;;;5003292;28;20464;-46
2021/09/20 06:10:36;;;;;;;9.20;7.87;;;14.70;69.50;;;;;;5001522;28;20515;-46
2021/09/20 06:13:06;;;;;;;10.20;7.60;;;14.70;69.80;;;;;;5003208;28;20480;-46
2021/09/20 06:15:35;;;;;;;10.67;7.87;;;14.70;69.70;;;;;;5000774;28;20465;-46
2021/09/20 06:18:03;;;;;;;10.73;7.60;;;14.70;69.80;;;;;;5001697;28;20840;-46
2021/09/20 06:20:29;;;;;;;13.43;8.53;;;14.70;69.80;;;;;;5004614;28;20464;-46
2021/09/20 06:22:57;;;;;;;11.80;8.27;;;14.70;69.80;;;;;;4999639;28;20500;-46
2021/09/20 06:25:24;;;;;;;9.07;8.03;;;14.80;69.50;;;;;;5002071;28;20958;-46
2021/09/20 06:27:52;;;;;;;10.90;8.13;;;14.80;69.50;;;;;;5021303;28;20485;-46
2021/09/20 06:30:19;;;;;;;13.90;8.20;;;14.80;69.50;;;;;;5001759;28;20519;-46
2021/09/20 06:32:46;;;;;;;9.57;8.00;;;14.80;69.70;;;;;;5002949;28;20467;-46
2021/09/20 06:35:13;;;;;;;9.10;7.50;;;14.80;69.50;;;;;;5001419;28;20966;-46
2021/09/20 06:37:40;;;;;;;11.27;7.90;;;14.90;69.50;;;;;;5002205;28;20815;-46
2021/09/20 06:40:08;;;;;;;10.40;8.80;;;14.80;69.70;;;;;;5014487;28;20467;-46
2021/09/20 06:42:35;;;;;;;11.27;7.90;;;14.90;69.90;;;;;;5003076;28;20488;-46
2021/09/20 06:45:03;;;;;;;11.30;7.97;;;14.90;69.80;;;;;;5004249;28;20464;-46
2021/09/20 06:47:30;;;;;;;15.90;8.80;;;14.90;69.70;;;;;;5001012;28;21149;-46
2021/09/20 06:49:57;;;;;;;11.73;8.90;;;15.00;69.50;;;;;;5003535;28;20456;-46
2021/09/20 06:52:24;;;;;;;9.93;8.07;;;15.00;69.70;;;;;;5008093;28;20452;-46
2021/09/20 06:54:51;;;;;;;13.27;8.47;;;15.00;69.40;;;;;;5002261;28;20460;-46
2021/09/20 06:57:17;;;;;;;10.53;7.90;;;15.10;69.40;;;;;;5002102;28;20462;-46
2021/09/20 06:59:44;;;;;;;10.80;9.20;;;15.10;69.50;;;;;;5000365;28;20471;-46
2021/09/20 07:02:11;;;;;;;14.07;8.97;;;15.10;69.70;;;;;;5000499;28;20812;-46
2021/09/20 07:04:38;;;;;;;13.10;8.93;;;15.10;69.60;;;;;;5000808;28;20522;-47
2021/09/20 07:07:05;;;;;;;9.30;8.30;;;15.20;69.50;;;;;;5020888;28;20487;-46
2021/09/20 07:09:31;;;;;;;13.30;7.97;;;15.20;69.10;;;;;;5007058;28;20474;-46
2021/09/20 07:11:58;;;;;;;10.20;8.17;;;15.30;69.00;;;;;;5005776;28;20456;-46
2021/09/20 07:14:25;;;;;;;9.93;8.37;;;15.30;68.30;;;;;;5003900;28;20569;-47
2021/09/20 07:16:51;;;;;;;9.80;8.80;;;15.30;68.20;;;;;;5003294;28;20553;-46
2021/09/20 07:19:18;;;;;;;10.53;8.80;;;15.30;68.70;;;;;;5006062;28;21286;-46
2021/09/20 07:21:45;;;;;;;9.37;7.90;;;15.30;68.60;;;;;;5008099;28;20452;-46
2021/09/20 07:24:12;;;;;;;11.13;8.57;;;15.30;68.30;;;;;;5007362;28;20499;-46
2021/09/20 07:26:38;;;;;;;9.90;8.10;;;15.20;68.20;;;;;;5004418;28;20468;-46
2021/09/20 07:29:05;;;;;;;12.73;8.20;;;15.20;68.50;;;;;;5006695;28;20456;-47
2021/09/20 07:31:32;;;;;;;10.90;8.10;;;15.20;68.60;;;;;;5008079;28;20460;-46
2021/09/20 07:33:59;;;;;;;13.30;9.00;;;15.30;68.20;;;;;;5001377;28;20456;-46
2021/09/20 07:36:26;;;;;;;10.80;8.10;;;15.30;68.40;;;;;;5004666;28;20457;-46
2021/09/20 07:38:53;;;;;;;11.83;9.03;;;15.30;68.60;;;;;;5009017;28;20825;-46
2021/09/20 07:41:20;;;;;;;10.47;8.53;;;15.30;68.10;;;;;;5006649;28;20828;-46
2021/09/20 07:43:47;;;;;;;12.00;8.73;;;15.30;68.30;;;;;;5008331;28;20492;-46
2021/09/20 07:46:16;;;;;;;11.70;8.90;;;15.30;67.90;;;;;;5022003;28;20933;-46
2021/09/20 07:48:43;;;;;;;9.70;8.70;;;15.30;68.10;;;;;;5008731;28;20468;-46
2021/09/20 07:51:09;;;;;;;12.40;7.97;;;15.40;68.20;;;;;;5014031;28;20474;-46
2021/09/20 07:53:36;;;;;;;10.10;8.80;;;15.40;68.10;;;;;;5007646;28;20452;-46
2021/09/20 07:56:04;;;;;;;10.30;9.10;;;15.40;67.80;;;;;;5002905;28;20469;-46
2021/09/20 07:58:31;;;;;;;11.70;8.47;;;15.30;67.80;;;;;;5005978;28;20453;-46
2021/09/20 08:00:59;;;;;;;12.90;9.57;;;15.30;67.80;;;;;;5022768;28;20499;-46
2021/09/20 08:03:27;;;;;;;14.40;8.90;;;15.40;67.60;;;;;;5008707;28;21042;-46
2021/09/20 08:05:54;;;;;;;11.27;7.90;;;15.40;67.60;;;;;;5023687;28;20972;-46
2021/09/20 08:08:21;;;;;;;12.73;9.00;;;15.40;67.60;;;;;;5011229;28;20465;-46
2021/09/20 08:10:50;;;;;;;10.50;9.03;;;15.50;67.80;;;;;;5004721;28;20459;-46
2021/09/20 08:13:17;;;;;;;14.23;10.17;;;15.50;67.80;;;;;;5006856;28;22234;-46
2021/09/20 08:15:45;;;;;;;15.30;9.97;;;15.50;67.70;;;;;;5004518;28;20514;-47
2021/09/20 08:18:13;;;;;;;10.43;8.23;;;15.50;67.30;;;;;;5021604;28;20535;-47
2021/09/20 08:20:42;;;;;;;10.63;8.57;;;15.50;67.70;;;;;;5006741;28;20496;-47
2021/09/20 08:23:10;;;;;;;9.10;7.70;;;15.60;67.80;;;;;;5006535;28;20495;-47
2021/09/20 08:25:37;;;;;;;12.17;8.97;;;15.60;67.50;;;;;;5005865;28;20470;-47
2021/09/20 08:28:04;;;;;;;13.80;9.77;;;15.60;67.40;;;;;;5009367;28;20449;-46
2021/09/20 08:30:31;;;;;;;12.00;9.77;;;15.50;67.40;;;;;;5021930;28;20456;-47
2021/09/20 08:32:58;;;;;;;12.00;8.60;;;15.50;67.70;;;;;;5008439;28;20805;-47
2021/09/20 08:35:25;;;;;;;11.77;9.10;;;15.50;67.50;;;;;;5005466;28;20575;-47
2021/09/20 08:37:52;;;;;;;14.03;10.43;;;15.40;67.20;;;;;;5006556;28;20461;-46
2021/09/20 08:40:19;;;;;;;10.80;8.90;;;15.40;67.60;;;;;;5004138;28;20453;-46
2021/09/20 08:42:48;;;;;;;12.57;8.90;;;15.30;67.60;;;;;;5006925;28;20496;-47
2021/09/20 08:45:18;;;;;;;16.90;10.00;;;15.30;67.90;;;;;;5021936;28;20481;-47
2021/09/20 08:47:48;;;;;;;13.53;8.90;;;15.40;68.20;;;;;;5004339;28;20465;-47
2021/09/20 08:50:18;;;;;;;13.13;10.50;;;15.50;68.10;;;;;;5007145;28;20552;-47
2021/09/20 08:52:45;;;;;;;11.80;9.57;;;15.60;68.10;;;;;;5020835;28;20450;-46
2021/09/20 08:55:12;;;;;;;10.63;8.80;;;15.70;67.80;;;;;;5004994;28;20459;-46
2021/09/20 08:57:40;;;;;;;10.97;8.70;;;15.70;67.90;;;;;;5010614;28;20459;-46
2021/09/20 09:00:09;;;;;;;11.97;9.63;;;15.80;67.70;;;;;;5018431;28;20548;-46
2021/09/20 09:02:36;;;;;;;14.10;9.80;;;15.90;67.60;;;;;;5003450;28;20460;-46
2021/09/20 09:05:19;;;;;;;11.73;9.30;;;15.80;67.10;;;;;;5021164;28;20463;-46
2021/09/20 09:07:49;;;;;;;10.80;8.70;;;15.80;67.10;;;;;;5003070;28;20483;-46
2021/09/20 09:10:17;;;;;;;12.33;9.63;;;15.80;67.10;;;;;;5005446;28;20469;-46
2021/09/20 09:12:44;;;;;;;9.60;8.10;;;15.80;67.10;;;;;;5006214;28;20450;-45
2021/09/20 09:15:13;;;;;;;12.83;9.30;;;15.90;67.10;;;;;;5001590;28;20465;-46
2021/09/20 09:17:44;;;;;;;12.20;9.70;;;15.90;67.10;;;;;;5006432;28;20453;-47
2021/09/20 09:20:19;;;;;;;10.20;8.57;;;16.00;67.00;;;;;;5002475;28;20984;-47
2021/09/20 09:22:49;;;;;;;13.40;8.90;;;16.20;66.60;;;;;;4999812;28;21035;-47
2021/09/20 09:25:22;;;;;;;16.23;8.40;;;16.30;66.20;;;;;;5004857;28;20467;-47
2021/09/20 09:27:53;;;;;;;12.97;9.30;;;16.50;66.60;;;;;;5005812;28;20464;-47
2021/09/20 09:30:23;;;;;;;10.67;8.60;;;16.40;65.60;;;;;;5000042;28;20463;-47
2021/09/20 09:33:06;;;;;;;9.60;8.47;;;16.40;65.50;;;;;;5003180;28;20469;-47
2021/09/20 09:35:34;;;;;;;12.00;8.90;;;16.50;65.90;;;;;;5002154;28;20456;-47
2021/09/20 09:38:07;;;;;;;12.00;9.10;;;16.60;65.80;;;;;;5000184;28;20457;-47
2021/09/20 09:41:01;;;;;;;10.23;8.67;;;16.70;65.50;;;;;;5007038;28;20474;-47
2021/09/20 09:43:38;;;;;;;11.30;9.03;;;16.80;65.20;;;;;;5003544;28;20484;-47
2021/09/20 09:46:20;;;;;;;15.20;9.53;;;16.80;64.40;;;;;;5001473;28;20467;-48
2021/09/20 09:48:47;;;;;;;14.70;9.33;;;16.90;64.40;;;;;;5006131;28;20883;-47
2021/09/20 09:51:14;;;;;;;10.17;8.80;;;17.00;64.30;;;;;;5002703;28;20470;-47
2021/09/20 09:53:44;;;;;;;14.27;9.67;;;17.10;64.30;;;;;;4998035;28;20503;-47
2021/09/20 09:56:13;;;;;;;11.70;9.30;;;17.20;63.50;;;;;;5005969;28;20975;-48
2021/09/20 09:58:59;;;;;;;12.00;9.50;;;17.10;64.10;;;;;;5006645;28;20467;-47
2021/09/20 10:01:37;;;;;;;11.30;9.20;;;17.20;64.40;;;;;;5005839;28;20475;-47
2021/09/20 10:04:06;;;;;;;12.53;9.20;;;17.30;64.20;;;;;;5005173;28;20484;-47
2021/09/20 10:06:54;;;;;;;15.00;8.73;;;17.50;63.80;;;;;;5001926;28;21134;-47
2021/09/20 10:09:31;;;;;;;11.00;8.13;;;17.60;63.50;;;;;;5008129;28;20523;-47
2021/09/20 10:11:59;;;;;;;12.07;8.73;;;17.70;62.80;;;;;;5001956;28;20498;-47
2021/09/20 10:14:27;;;;;;;11.83;8.10;;;17.70;62.90;;;;;;5003894;28;20516;-47
2021/09/20 10:16:57;;;;;;;12.13;9.50;;;17.80;62.80;;;;;;5003242;28;20555;-47
2021/09/20 10:19:24;;;;;;;14.50;9.03;;;18.00;62.90;;;;;;5019588;28;20451;-47
2021/09/20 10:21:52;;;;;;;11.80;9.33;;;18.10;61.20;;;;;;5005204;28;20543;-47
2021/09/20 10:24:19;;;;;;;10.67;8.13;;;18.10;61.20;;;;;;5002977;28;20510;-47
2021/09/20 10:26:51;;;;;;;10.07;8.30;;;18.10;61.40;;;;;;5003394;28;20449;-47
2021/09/20 10:29:19;;;;;;;12.83;7.77;;;18.00;61.60;;;;;;5006961;28;20831;-48
2021/09/20 10:31:49;;;;;;;11.63;7.90;;;17.90;61.60;;;;;;5000969;28;20460;-48
2021/09/20 10:34:22;;;;;;;10.30;8.63;;;17.90;61.70;;;;;;5006050;28;20989;-47
2021/09/20 10:36:59;;;;;;;10.03;8.50;;;17.90;62.90;;;;;;5003322;28;20833;-48
2021/09/20 10:39:46;;;;;;;10.10;7.80;;;18.00;62.50;;;;;;5002312;28;20472;-47
2021/09/20 10:42:43;;;;;;;10.23;7.30;;;18.00;62.50;;;;;;5008043;28;20452;-47
2021/09/20 10:45:42;;;;;;;10.37;8.60;;;18.00;62.00;;;;;;5002946;28;20494;-47
2021/09/20 10:48:33;;;;;;;11.77;8.00;;;18.00;61.80;;;;;;5004026;28;20456;-47
2021/09/20 10:51:19;;;;;;;11.20;7.20;;;18.00;62.30;;;;;;5001387;28;20461;-48
2021/09/20 10:53:47;;;;;;;10.23;7.23;;;18.00;61.00;;;;;;5002380;28;21728;-47
2021/09/20 10:56:21;;;;;;;7.57;6.70;;;18.00;60.40;;;;;;5004136;28;20460;-47
2021/09/20 10:58:50;;;;;;;10.70;8.43;;;17.90;61.00;;;;;;5003660;28;20464;-47
2021/09/20 11:01:19;;;;;;;10.20;7.10;;;17.90;60.80;;;;;;5003997;28;20475;-47
2021/09/20 11:03:53;;;;;;;11.20;7.97;;;17.90;61.00;;;;;;5004021;28;20571;-47
2021/09/20 11:06:29;;;;;;;8.67;7.20;;;17.90;61.20;;;;;;5003136;28;20453;-47
2021/09/20 11:09:01;;;;;;;11.00;7.80;;;17.90;61.20;;;;;;5004846;28;20464;-47
2021/09/20 11:11:47;;;;;;;9.10;7.50;;;18.00;60.60;;;;;;5007257;28;20460;-48
2021/09/20 11:14:35;;;;;;;9.27;7.30;;;17.90;60.70;;;;;;5001969;28;20575;-47
2021/09/20 11:17:20;;;;;;;7.67;6.87;;;17.70;61.20;;;;;;5000881;28;20461;-47
2021/09/20 11:19:48;;;;;;;11.33;7.17;;;17.60;61.20;;;;;;5001478;28;20476;-47
2021/09/20 11:22:14;;;;;;;9.40;8.07;;;17.60;61.60;;;;;;5005919;28;20960;-47
2021/09/20 11:24:48;;;;;;;8.83;7.93;;;17.50;62.00;;;;;;5001776;28;20538;-47
2021/09/20 11:27:21;;;;;;;8.97;7.47;;;17.40;62.20;;;;;;5002861;28;20458;-47
2021/09/20 11:29:51;;;;;;;12.27;7.33;;;17.50;62.80;;;;;;5002827;28;20449;-47
2021/09/20 11:32:18;;;;;;;10.30;7.03;;;17.50;62.60;;;;;;5001658;28;20457;-47
2021/09/20 11:34:48;;;;;;;9.13;7.27;;;17.50;62.30;;;;;;5005332;28;21074;-47
2021/09/20 11:37:21;;;;;;;9.17;7.80;;;17.60;62.10;;;;;;5015678;28;20464;-47
2021/09/20 11:39:54;;;;;;;9.00;6.87;;;17.50;62.10;;;;;;5003488;28;20456;-47
2021/09/20 11:42:24;;;;;;;10.80;7.30;;;17.50;61.90;;;;;;5005840;28;20472;-47
2021/09/20 11:45:00;;;;;;;11.10;8.93;;;17.50;62.00;;;;;;5003379;28;20800;-47
2021/09/20 11:47:28;;;;;;;8.67;7.77;;;17.40;62.20;;;;;;5002849;28;20469;-47
2021/09/20 11:50:23;;;;;;;8.67;7.47;;;17.40;62.40;;;;;;5005615;28;20456;-47
2021/09/20 11:52:52;;;;;;;9.70;7.70;;;17.40;62.40;;;;;;5003162;28;20821;-47
2021/09/20 11:55:23;;;;;;;9.00;6.90;;;17.40;62.40;;;;;;5008656;28;20506;-48
2021/09/20 11:57:52;;;;;;;7.77;6.87;;;17.50;62.10;;;;;;5005873;28;20487;-47
2021/09/20 12:00:22;;;;;;;9.10;7.43;;;17.60;62.40;;;;;;5005164;28;20472;-47
2021/09/20 12:02:53;;;;;;;8.10;6.50;;;17.60;62.10;;;;;;5003788;28;20460;-47
2021/09/20 12:05:23;;;;;;;9.00;6.10;;;17.60;61.50;;;;;;5004716;28;20483;-47
2021/09/20 12:07:55;;;;;;;8.57;6.33;;;17.60;61.00;;;;;;5009550;28;20463;-47
2021/09/20 12:10:30;;;;;;;8.47;7.10;;;17.50;61.30;;;;;;5007660;28;20518;-47
2021/09/20 12:13:03;;;;;;;7.87;6.90;;;17.60;61.40;;;;;;5006724;28;20476;-47
2021/09/20 12:15:33;;;;;;;8.07;6.90;;;17.70;61.60;;;;;;5006908;28;20460;-47
2021/09/20 12:18:02;;;;;;;11.10;8.67;;;17.70;61.30;;;;;;5003718;28;20488;-47
2021/09/20 12:20:35;;;;;;;7.90;6.70;;;17.70;61.40;;;;;;5007493;28;20460;-47
2021/09/20 12:23:30;;;;;;;10.00;7.10;;;17.60;61.70;;;;;;5006850;28;20832;-47
2021/09/20 12:26:03;;;;;;;8.50;6.40;;;17.70;61.80;;;;;;5000782;28;20505;-48
2021/09/20 12:28:37;;;;;;;7.77;6.90;;;17.80;62.30;;;;;;5004765;28;20478;-47
2021/09/20 12:31:10;;;;;;;7.83;6.47;;;17.90;61.70;;;;;;5005743;28;21015;-47
2021/09/20 12:33:52;;;;;;;8.83;7.40;;;17.90;60.70;;;;;;5009032;28;20464;-47
2021/09/20 12:36:29;;;;;;;8.40;6.27;;;17.90;60.90;;;;;;5005161;28;20456;-47
2021/09/20 12:39:21;;;;;;;9.03;6.80;;;18.00;60.90;;;;;;5002429;28;21390;-47
2021/09/20 12:41:55;;;;;;;7.47;6.40;;;17.90;60.70;;;;;;5004556;28;20807;-48
2021/09/20 12:44:35;;;;;;;8.60;6.53;;;18.00;61.20;;;;;;5002797;28;20675;-47
2021/09/20 12:47:11;;;;;;;7.63;6.63;;;18.00;61.50;;;;;;5004976;28;20453;-47
2021/09/20 12:49:38;;;;;;;9.60;7.00;;;18.10;61.40;;;;;;5020378;28;20444;-47
2021/09/20 12:52:25;;;;;;;12.63;6.97;;;18.00;61.40;;;;;;5004174;28;20479;-47